Date,TemperatureHighF,TemperatureAvgF,TemperatureLowF,DewpointHighF,DewpointAvgF,DewpointLowF,HumidityHigh,HumidityAvg,HumidityLow,PressureMaxIn,PressureMinIn,WindSpeedMaxMPH,WindSpeedAvgMPH,GustSpeedMaxMPH,PrecipitationSumIn
2014-1-1,63.7,50.1,44.1,51.2,46.4,-45.8,94,88,73,32.77,21.82,7,0,7,0.16
2014-1-2,58.7,51.0,-22.2,56.4,48.2,-22.8,97,91,63,32.14,29.85,30,2,30,0.12
2014-1-3,43.1,33.4,25.6,25.1,18.1,15.2,78,54,33,30.40,30.22,19,5,22,0.04
2014-1-4,56.1,40.2,25.8,46.2,30.5,0.0,80,68,57,34.38,30.05,11,2,11,0.00
2014-1-5,71.7,54.5,40.6,61.0,50.1,-30.8,95,86,73,34.47,22.97,30,1,30,0.12
2014-1-6,62.7,33.8,22.4,50.3,18.0,0.8,91,55,31,30.52,29.85,27,6,30,0.03
2014-1-7,31.5,23.7,16.2,6.9,2.7,-1.7,54,40,28,30.80,30.46,18,3,19,0.03
2014-1-8,52.4,33.6,17.0,18.1,11.0,-58.2,70,42,20,34.20,30.34,13,2,14,0.00
2014-1-9,49.3,45.1,40.0,47.4,36.2,17.2,95,74,36,30.38,28.18,7,2,8,0.22
2014-1-10,66.0,55.9,48.5,65.4,54.9,47.1,98,97,95,30.22,29.94,9,0,9,0.04
2014-1-11,74.5,64.8,48.6,68.3,57.0,33.9,99,79,39,30.64,29.78,34,1,34,1.02
2014-1-12,67.8,49.3,35.5,44.8,37.3,32.4,91,67,31,30.22,30.05,8,0,8,0.00
2014-1-13,60.7,52.7,40.6,58.2,49.3,37.0,97,88,68,30.13,29.83,9,0,9,1.24
2014-1-14,72.8,54.7,38.8,59.2,42.6,-44.4,97,68,31,31.68,29.82,16,1,17,0.05
2014-1-15,55.5,43.0,33.2,39.5,30.4,18.9,93,64,37,30.14,29.99,14,2,14,0.00
2014-1-16,54.4,33.3,24.9,28.4,18.7,-55.1,81,57,24,34.38,29.32,12,0,12,0.00
2014-1-17,61.9,47.4,33.3,46.0,29.0,12.8,93,55,27,30.19,30.01,9,1,15,0.00
2014-1-18,70.7,38.7,23.4,28.5,19.4,-59.7,80,51,19,31.28,21.77,10,0,10,0.00
2014-1-19,62.9,48.3,34.3,47.3,37.0,28.7,92,69,33,30.79,30.05,15,1,17,0.18
2014-1-20,65.8,46.6,29.7,46.5,37.8,26.9,94,74,41,30.12,29.93,13,0,13,0.00
2014-1-21,59.1,47.8,32.0,54.8,33.2,18.1,97,61,30,30.12,29.85,19,3,24,0.00
2014-1-22,32.7,29.8,28.4,18.0,15.9,14.6,57,56,54,30.14,30.11,11,2,13,0.00
2014-1-23,47.6,41.6,39.3,24.2,21.6,19.2,47,44,36,30.47,30.36,6,2,10,0.00
2014-1-24,37.1,37.0,36.4,12.6,10.8,9.9,37,33,32,30.41,30.38,1,0,4,0.00
2014-1-25,53.0,44.6,38.6,40.9,36.9,33.7,84,75,63,30.12,29.98,3,0,6,0.00
2014-1-26,60.8,45.0,31.9,46.0,36.7,0.0,93,75,40,30.48,29.90,7,0,13,0.00
2014-1-27,66.5,55.5,47.1,61.9,51.7,34.0,96,87,59,30.09,29.87,14,0,14,0.03
2014-1-28,48.1,34.2,24.5,33.9,22.1,10.9,90,65,37,30.24,30.01,17,3,17,0.34
2014-1-29,26.4,23.1,20.0,21.3,18.5,0.0,87,82,74,30.36,30.19,0,0,0,0.00
2014-1-30,36.7,27.1,17.5,31.2,22.7,12.7,91,83,74,30.31,30.14,7,0,7,0.16
2014-1-31,57.9,40.2,25.7,40.7,32.3,23.1,95,76,42,30.21,30.06,7,0,7,0.08